Time;durP1;ratioP1;P1;durP2;ratioP2;P2;SDS_P1;SDS_P2;PMS_P1;PMS_P2;Temp;Humidity;BMP_temperature;BMP_pressure;BME280_temperature;BME280_humidity;BME280_pressure;Samples;Min_cycle;Max_cycle;Signal;HPM_P1;HPM_P2
2023/05/29 00:02:06;;;;;;;22.80;3.80;;;11.70;99.90;;;;;;5062241;28;20047;-70
2023/05/29 00:04:32;;;;;;;15.77;3.55;;;11.70;99.90;;;;;;5061757;28;20052;-70
2023/05/29 00:06:58;;;;;;;28.77;3.83;;;11.70;99.90;;;;;;5062080;28;20025;-71
2023/05/29 00:09:23;;;;;;;20.65;3.40;;;11.70;99.90;;;;;;5061617;28;20032;-70
2023/05/29 00:11:52;;;;;;;24.52;4.22;;;11.70;99.90;;;;;;5061607;28;20029;-70
2023/05/29 00:14:19;;;;;;;23.42;3.42;;;11.60;99.90;;;;;;5061736;28;20021;-72
2023/05/29 00:16:46;;;;;;;17.52;3.35;;;11.50;99.90;;;;;;5061273;28;20191;-71
2023/05/29 00:19:13;;;;;;;23.73;3.67;;;11.50;99.90;;;;;;5062021;28;20425;-72
2023/05/29 00:21:39;;;;;;;20.42;3.50;;;11.50;99.90;;;;;;5062066;28;20402;-70
2023/05/29 00:24:05;;;;;;;21.63;3.33;;;11.50;99.90;;;;;;5060656;28;20071;-70
2023/05/29 00:26:31;;;;;;;15.45;2.67;;;11.40;99.90;;;;;;5061646;28;20029;-71
2023/05/29 00:28:56;;;;;;;24.33;3.90;;;11.40;99.90;;;;;;5061939;28;20025;-70
2023/05/29 00:31:24;;;;;;;17.42;3.13;;;11.30;99.90;;;;;;5061289;28;20021;-71
2023/05/29 00:33:49;;;;;;;24.90;4.05;;;11.30;99.90;;;;;;5060400;28;20017;-71
2023/05/29 00:36:16;;;;;;;24.75;3.65;;;11.30;99.90;;;;;;5060212;28;20040;-72
2023/05/29 00:38:41;;;;;;;22.85;3.55;;;11.20;99.90;;;;;;5059905;28;20056;-71
2023/05/29 00:41:07;;;;;;;28.23;3.60;;;11.20;99.90;;;;;;5061633;28;20473;-69
2023/05/29 00:43:32;;;;;;;21.33;3.10;;;11.20;99.90;;;;;;5061235;28;20029;-70
2023/05/29 00:45:58;;;;;;;19.52;3.53;;;11.20;99.90;;;;;;5061493;28;20055;-70
2023/05/29 00:48:25;;;;;;;18.45;3.85;;;11.20;99.90;;;;;;5060579;28;20021;-69
2023/05/29 00:50:51;;;;;;;22.23;3.95;;;11.10;99.90;;;;;;5061009;28;20113;-71
2023/05/29 00:53:17;;;;;;;19.52;3.65;;;11.10;99.90;;;;;;5061392;28;20029;-69
2023/05/29 00:55:42;;;;;;;19.95;3.70;;;11.00;99.90;;;;;;5061561;28;20075;-70
2023/05/29 00:58:08;;;;;;;19.27;3.40;;;11.00;99.90;;;;;;5060735;28;20021;-71
2023/05/29 01:00:35;;;;;;;24.05;3.78;;;11.00;99.90;;;;;;5061329;28;20040;-70
2023/05/29 01:03:04;;;;;;;17.90;3.25;;;11.00;99.90;;;;;;5060905;28;20036;-70
2023/05/29 01:05:33;;;;;;;26.13;3.67;;;11.00;99.90;;;;;;5060545;28;20029;-70
2023/05/29 01:07:59;;;;;;;23.50;3.92;;;10.90;99.90;;;;;;5060780;28;20049;-70
2023/05/29 01:10:26;;;;;;;16.65;3.53;;;10.90;99.90;;;;;;5061167;28;20033;-70
2023/05/29 01:13:01;;;;;;;22.80;3.85;;;10.90;99.90;;;;;;5060538;28;20028;-70
2023/05/29 01:15:45;;;;;;;25.20;3.92;;;10.80;99.90;;;;;;5061343;28;20032;-70
2023/05/29 01:18:34;;;;;;;22.45;3.97;;;10.80;99.90;;;;;;5060958;28;20074;-70
2023/05/29 01:21:21;;;;;;;30.85;4.85;;;10.80;99.90;;;;;;5060973;28;20044;-69
2023/05/29 01:24:13;;;;;;;17.55;3.45;;;10.80;99.90;;;;;;5060627;28;20116;-70
2023/05/29 01:27:10;;;;;;;22.35;3.85;;;10.70;99.90;;;;;;5061344;28;20124;-70
2023/05/29 01:29:39;;;;;;;22.83;3.88;;;10.70;99.90;;;;;;5059738;28;20029;-70
2023/05/29 01:32:06;;;;;;;17.95;3.60;;;10.70;99.90;;;;;;5060715;28;20089;-71
2023/05/29 01:34:32;;;;;;;22.33;3.65;;;10.60;99.90;;;;;;5061355;28;20033;-71
2023/05/29 01:36:57;;;;;;;25.38;4.10;;;10.60;99.90;;;;;;5062775;28;20109;-70
2023/05/29 01:39:24;;;;;;;24.27;3.70;;;10.50;99.90;;;;;;5062589;28;20025;-70
2023/05/29 01:41:50;;;;;;;24.77;3.40;;;10.50;99.90;;;;;;5063330;28;20486;-70
2023/05/29 01:44:17;;;;;;;27.33;3.55;;;10.50;99.90;;;;;;5064108;28;20025;-70
2023/05/29 01:46:43;;;;;;;19.70;3.60;;;10.50;99.90;;;;;;5064602;28;20024;-71
2023/05/29 01:49:11;;;;;;;23.23;3.30;;;10.50;99.90;;;;;;5064267;28;20051;-71
2023/05/29 01:51:37;;;;;;;25.95;4.03;;;10.50;99.90;;;;;;5064509;28;20081;-70
2023/05/29 01:54:03;;;;;;;30.08;4.10;;;10.50;99.90;;;;;;5063721;28;20095;-70
2023/05/29 01:56:30;;;;;;;24.13;3.83;;;10.40;99.90;;;;;;5064569;28;20531;-69
2023/05/29 01:58:57;;;;;;;16.98;3.47;;;10.40;99.90;;;;;;5063857;28;20025;-70
2023/05/29 02:01:22;;;;;;;18.90;3.40;;;10.40;99.90;;;;;;5063941;28;20037;-72
2023/05/29 02:03:48;;;;;;;31.90;4.38;;;10.40;99.90;;;;;;5064319;28;20032;-71
2023/05/29 02:06:14;;;;;;;23.45;3.88;;;10.40;99.90;;;;;;5064128;28;20025;-71
2023/05/29 02:08:40;;;;;;;19.98;3.58;;;10.30;99.90;;;;;;5064063;28;20013;-70
2023/05/29 02:11:05;;;;;;;20.23;3.40;;;10.40;99.90;;;;;;5064433;28;20053;-71
2023/05/29 02:13:32;;;;;;;25.42;3.35;;;10.40;99.90;;;;;;5062631;28;20017;-71
2023/05/29 02:15:57;;;;;;;24.67;3.72;;;10.40;99.90;;;;;;5063434;28;20051;-70
2023/05/29 02:18:23;;;;;;;22.52;3.30;;;10.40;99.90;;;;;;5062682;28;20017;-70
2023/05/29 02:20:48;;;;;;;22.20;3.30;;;10.30;99.90;;;;;;5063682;28;20094;-70
2023/05/29 02:23:15;;;;;;;24.58;3.72;;;10.20;99.90;;;;;;5062481;28;20032;-71
2023/05/29 02:25:42;;;;;;;19.27;3.10;;;10.20;99.90;;;;;;5064052;28;20021;-72
2023/05/29 02:28:07;;;;;;;24.52;3.90;;;10.20;99.90;;;;;;5063803;28;20059;-70
2023/05/29 02:30:33;;;;;;;24.35;3.22;;;10.30;99.90;;;;;;5063918;28;20029;-71
2023/05/29 02:32:58;;;;;;;24.58;4.05;;;10.30;99.90;;;;;;5063651;28;20402;-70
2023/05/29 02:35:24;;;;;;;21.55;3.20;;;10.20;99.90;;;;;;5063214;28;20159;-72
2023/05/29 02:37:50;;;;;;;20.95;3.55;;;10.20;99.90;;;;;;5063656;28;20028;-71
2023/05/29 02:40:16;;;;;;;22.35;4.38;;;10.20;99.90;;;;;;5062204;28;20035;-72
2023/05/29 02:42:42;;;;;;;25.98;3.70;;;10.20;99.90;;;;;;5063273;28;20040;-71
2023/05/29 02:45:08;;;;;;;28.65;3.75;;;10.30;99.90;;;;;;5063957;28;20032;-72
2023/05/29 02:47:35;;;;;;;19.85;3.38;;;10.30;99.90;;;;;;5062764;28;20047;-71
2023/05/29 02:50:05;;;;;;;20.08;3.55;;;10.30;99.90;;;;;;5062518;28;20020;-71
2023/05/29 02:52:31;;;;;;;21.42;3.92;;;10.30;99.90;;;;;;5063270;28;20025;-70
2023/05/29 02:54:58;;;;;;;24.50;3.88;;;10.30;99.90;;;;;;5062875;28;20029;-71
2023/05/29 02:57:24;;;;;;;26.05;3.90;;;10.20;99.90;;;;;;5062726;28;20080;-71
2023/05/29 02:59:50;;;;;;;26.05;3.35;;;10.20;99.90;;;;;;5063338;28;20028;-71
2023/05/29 03:02:15;;;;;;;22.38;2.92;;;10.10;99.90;;;;;;5061554;28;20041;-70
2023/05/29 03:04:45;;;;;;;17.25;2.95;;;10.10;99.90;;;;;;5062904;28;20032;-72
2023/05/29 03:07:10;;;;;;;15.00;2.95;;;10.10;99.90;;;;;;5062713;28;20017;-72
2023/05/29 03:09:36;;;;;;;25.25;3.80;;;10.10;99.90;;;;;;5062953;28;20072;-70
2023/05/29 03:12:02;;;;;;;22.00;2.72;;;10.10;99.90;;;;;;5063055;28;20044;-70
2023/05/29 03:14:28;;;;;;;24.50;3.20;;;10.10;99.90;;;;;;5061386;28;20021;-71
2023/05/29 03:16:54;;;;;;;24.45;3.50;;;10.10;99.90;;;;;;5061344;28;20454;-71
2023/05/29 03:19:20;;;;;;;28.35;3.90;;;10.10;99.90;;;;;;5062534;28;20021;-72
2023/05/29 03:21:46;;;;;;;19.25;3.53;;;10.10;99.90;;;;;;5062824;28;20067;-70
2023/05/29 03:24:13;;;;;;;23.25;3.88;;;10.10;99.90;;;;;;5061336;28;20025;-71
2023/05/29 03:26:39;;;;;;;24.48;3.67;;;10.10;99.90;;;;;;5062451;28;20017;-71
2023/05/29 03:29:05;;;;;;;17.60;3.47;;;10.10;99.90;;;;;;5062957;28;20025;-71
2023/05/29 03:31:31;;;;;;;17.88;3.45;;;10.00;99.90;;;;;;5061598;28;20486;-71
2023/05/29 03:33:56;;;;;;;22.17;3.40;;;10.10;99.90;;;;;;5062180;28;20029;-70
2023/05/29 03:36:22;;;;;;;22.02;3.40;;;10.00;99.90;;;;;;5061223;28;20040;-69
2023/05/29 03:38:47;;;;;;;26.20;3.33;;;10.00;99.90;;;;;;5061890;28;20051;-71
2023/05/29 03:41:13;;;;;;;25.23;3.40;;;10.00;99.90;;;;;;5062571;28;20037;-70
2023/05/29 03:43:38;;;;;;;21.98;3.55;;;10.00;99.90;;;;;;5062765;28;20075;-70
2023/05/29 03:46:04;;;;;;;20.75;3.13;;;10.10;99.90;;;;;;5061999;28;20029;-70
2023/05/29 03:48:30;;;;;;;22.05;3.67;;;10.00;99.90;;;;;;5061756;28;20032;-71
2023/05/29 03:50:55;;;;;;;21.23;3.92;;;10.10;99.90;;;;;;5060841;28;20564;-70
2023/05/29 03:53:24;;;;;;;24.30;4.35;;;10.10;99.90;;;;;;5061649;28;20108;-71
2023/05/29 03:55:49;;;;;;;25.30;3.38;;;10.10;99.90;;;;;;5062139;28;20035;-71
2023/05/29 03:58:15;;;;;;;19.08;3.60;;;10.10;99.90;;;;;;5062041;28;20064;-72
2023/05/29 04:00:41;;;;;;;32.50;4.80;;;10.10;99.90;;;;;;5061668;28;20055;-70
2023/05/29 04:03:06;;;;;;;22.20;3.17;;;10.10;99.90;;;;;;5062044;28;20033;-71
2023/05/29 04:05:32;;;;;;;19.83;4.18;;;10.10;99.90;;;;;;5060624;28;20050;-71
2023/05/29 04:07:57;;;;;;;20.45;3.92;;;10.10;99.90;;;;;;5060446;28;20032;-72
2023/05/29 04:10:24;;;;;;;25.08;3.72;;;10.10;99.90;;;;;;5060727;28;20040;-70
2023/05/29 04:12:50;;;;;;;27.00;3.58;;;10.00;99.90;;;;;;5061141;28;20078;-70
2023/05/29 04:15:16;;;;;;;23.88;3.88;;;10.00;99.90;;;;;;5060529;28;20033;-72
2023/05/29 04:17:41;;;;;;;22.70;3.65;;;10.00;99.90;;;;;;5062019;28;20028;-71
2023/05/29 04:20:10;;;;;;;26.85;3.30;;;9.90;99.90;;;;;;5060320;28;20123;-71
2023/05/29 04:22:36;;;;;;;32.72;3.75;;;10.00;99.90;;;;;;5061408;28;20032;-71
2023/05/29 04:25:03;;;;;;;23.67;3.70;;;10.00;99.90;;;;;;5060418;28;20056;-71
2023/05/29 04:27:29;;;;;;;22.17;3.50;;;10.00;99.90;;;;;;5060972;28;20039;-71
2023/05/29 04:29:55;;;;;;;30.85;3.47;;;10.00;99.90;;;;;;5061621;28;20025;-72
2023/05/29 04:32:21;;;;;;;28.52;3.40;;;10.10;99.90;;;;;;5060494;28;20052;-70
2023/05/29 04:34:47;;;;;;;21.35;2.90;;;10.10;99.90;;;;;;5061573;28;20090;-71
2023/05/29 04:37:16;;;;;;;22.60;3.53;;;10.20;99.90;;;;;;5062223;28;20021;-71
2023/05/29 04:39:41;;;;;;;22.10;3.00;;;10.20;99.90;;;;;;5061523;28;20028;-72
2023/05/29 04:42:07;;;;;;;23.50;3.42;;;10.20;99.90;;;;;;5060192;28;20049;-71
2023/05/29 04:44:32;;;;;;;21.70;4.20;;;10.20;99.90;;;;;;5061194;28;20089;-71
2023/05/29 04:46:58;;;;;;;27.65;3.85;;;10.20;99.90;;;;;;5061645;28;20024;-71
2023/05/29 04:49:24;;;;;;;21.45;3.47;;;10.30;99.90;;;;;;5061151;28;20118;-70
2023/05/29 04:51:52;;;;;;;18.52;3.60;;;10.30;99.90;;;;;;5061559;28;20041;-71
2023/05/29 04:54:19;;;;;;;23.85;3.50;;;10.30;99.90;;;;;;5061566;28;20021;-71
2023/05/29 04:56:45;;;;;;;19.00;2.92;;;10.30;99.90;;;;;;5061229;28;20044;-71
2023/05/29 04:59:12;;;;;;;24.90;3.83;;;10.40;99.90;;;;;;5061286;28;20056;-71
2023/05/29 05:01:37;;;;;;;21.70;3.28;;;10.40;99.90;;;;;;5060258;28;20049;-71
2023/05/29 05:04:03;;;;;;;18.05;3.75;;;10.40;99.90;;;;;;5059926;28;20029;-71
2023/05/29 05:06:28;;;;;;;21.63;3.67;;;10.40;99.90;;;;;;5060134;28;20470;-72
2023/05/29 05:08:55;;;;;;;18.40;3.40;;;10.50;99.90;;;;;;5061309;28;20025;-72
2023/05/29 05:11:22;;;;;;;27.05;4.13;;;10.60;99.90;;;;;;5062308;28;20537;-70
2023/05/29 05:13:48;;;;;;;17.15;3.75;;;10.60;99.90;;;;;;5065143;28;20036;-71
2023/05/29 05:16:14;;;;;;;25.27;4.25;;;10.60;99.90;;;;;;5063132;28;20033;-72
2023/05/29 05:18:39;;;;;;;21.08;3.67;;;10.60;99.90;;;;;;5065335;28;20025;-70
2023/05/29 05:21:06;;;;;;;25.38;3.80;;;10.60;99.90;;;;;;5064065;28;20048;-71
2023/05/29 05:23:32;;;;;;;22.92;3.50;;;10.60;99.90;;;;;;5064631;28;20478;-71
2023/05/29 05:25:57;;;;;;;23.65;4.00;;;10.60;99.90;;;;;;5065214;28;20032;-71
2023/05/29 05:28:23;;;;;;;23.25;3.33;;;10.70;99.90;;;;;;5065023;28;20450;-69
2023/05/29 05:30:49;;;;;;;24.35;4.40;;;10.70;99.90;;;;;;5063341;28;20036;-71
2023/05/29 05:33:15;;;;;;;25.52;3.47;;;10.80;99.90;;;;;;5065207;28;20021;-71
2023/05/29 05:35:40;;;;;;;27.13;4.30;;;10.80;99.90;;;;;;5065288;28;20028;-71
2023/05/29 05:38:06;;;;;;;28.33;3.92;;;10.80;99.90;;;;;;5064775;28;20374;-71
2023/05/29 05:40:32;;;;;;;25.75;3.80;;;10.80;99.90;;;;;;5065086;28;20051;-71
2023/05/29 05:42:57;;;;;;;29.70;3.88;;;10.90;99.90;;;;;;5063647;28;20079;-70
2023/05/29 05:45:23;;;;;;;18.33;3.33;;;10.90;99.90;;;;;;5064611;28;20060;-70
2023/05/29 05:47:49;;;;;;;22.42;3.92;;;11.00;99.90;;;;;;5064252;28;20093;-69
2023/05/29 05:50:15;;;;;;;28.92;4.22;;;11.10;99.90;;;;;;5063064;28;20021;-70
2023/05/29 05:52:40;;;;;;;29.15;5.90;;;11.10;99.90;;;;;;5064608;28;20049;-69
2023/05/29 05:55:09;;;;;;;26.60;4.20;;;11.00;99.90;;;;;;5062942;28;20048;-69
2023/05/29 05:57:35;;;;;;;25.95;4.50;;;11.00;99.90;;;;;;5064379;28;20028;-69
2023/05/29 06:00:07;;;;;;;26.25;4.45;;;11.00;99.90;;;;;;5064071;28;20028;-69
2023/05/29 06:02:33;;;;;;;24.90;4.10;;;11.10;99.90;;;;;;5064191;28;20088;-69
2023/05/29 06:04:58;;;;;;;25.55;3.90;;;11.10;99.90;;;;;;5064505;28;20036;-69
2023/05/29 06:07:24;;;;;;;21.20;4.07;;;11.10;99.90;;;;;;5063521;28;20489;-70
2023/05/29 06:09:50;;;;;;;26.98;3.92;;;11.20;99.90;;;;;;5064184;28;20080;-69
2023/05/29 06:12:15;;;;;;;24.23;4.22;;;11.30;99.90;;;;;;5064218;28;20111;-70
2023/05/29 06:14:41;;;;;;;22.20;3.90;;;11.30;99.90;;;;;;5064180;28;20051;-70
2023/05/29 06:17:06;;;;;;;25.05;4.30;;;11.40;99.90;;;;;;5064503;28;20056;-69
2023/05/29 06:19:32;;;;;;;26.35;4.15;;;11.40;99.90;;;;;;5064116;28;20029;-70
2023/05/29 06:21:57;;;;;;;20.30;4.10;;;11.50;99.90;;;;;;5063305;28;20045;-69
2023/05/29 06:24:23;;;;;;;22.23;3.13;;;11.40;99.90;;;;;;5062565;28;20025;-71
2023/05/29 06:26:50;;;;;;;25.75;4.45;;;11.50;99.90;;;;;;5059961;28;20493;-70
2023/05/29 06:29:15;;;;;;;24.05;3.88;;;11.60;99.90;;;;;;5063881;28;20098;-70
2023/05/29 06:31:41;;;;;;;25.20;4.38;;;11.60;99.90;;;;;;5064229;28;20051;-69
2023/05/29 06:34:06;;;;;;;25.05;4.45;;;11.70;99.90;;;;;;5061614;28;20108;-70
2023/05/29 06:36:32;;;;;;;23.08;4.07;;;11.70;99.90;;;;;;5063081;28;20055;-69
2023/05/29 06:38:58;;;;;;;25.92;4.75;;;11.80;99.90;;;;;;5061425;28;20029;-69
2023/05/29 06:41:23;;;;;;;28.38;4.43;;;11.90;99.90;;;;;;5063104;28;20033;-71
2023/05/29 06:43:49;;;;;;;27.00;3.88;;;11.90;99.90;;;;;;5062365;28;20363;-69
2023/05/29 06:46:15;;;;;;;24.33;4.18;;;12.00;99.90;;;;;;5061687;28;20051;-68
2023/05/29 06:48:41;;;;;;;23.13;4.03;;;12.10;99.90;;;;;;5061219;28;20037;-71
2023/05/29 06:51:12;;;;;;;28.00;4.85;;;12.10;99.90;;;;;;5062010;28;20057;-69
2023/05/29 06:53:41;;;;;;;26.02;4.53;;;12.10;99.90;;;;;;5060488;28;20032;-68
2023/05/29 06:56:07;;;;;;;22.10;4.43;;;12.10;99.90;;;;;;5061347;28;20037;-69
2023/05/29 06:58:33;;;;;;;25.13;4.65;;;12.10;99.90;;;;;;5057175;28;20025;-69
2023/05/29 07:00:59;;;;;;;27.17;4.65;;;12.10;99.90;;;;;;5062772;28;20048;-70
2023/05/29 07:03:28;;;;;;;22.55;4.28;;;12.10;99.90;;;;;;5062734;28;20036;-69
2023/05/29 07:05:54;;;;;;;25.02;3.75;;;12.20;99.90;;;;;;5062934;28;20466;-70
2023/05/29 07:08:20;;;;;;;27.55;4.97;;;12.20;99.90;;;;;;5063297;28;20021;-69
2023/05/29 07:10:46;;;;;;;25.13;4.38;;;12.30;99.90;;;;;;5063063;28;20040;-69
2023/05/29 07:13:21;;;;;;;21.42;4.03;;;12.40;99.90;;;;;;5062350;28;20032;-69
2023/05/29 07:15:48;;;;;;;26.70;4.57;;;12.50;99.90;;;;;;5062762;28;20021;-69
2023/05/29 07:18:14;;;;;;;31.88;4.88;;;12.50;99.90;;;;;;5060395;28;20025;-69
2023/05/29 07:20:40;;;;;;;26.98;4.60;;;12.60;99.90;;;;;;5061940;28;20079;-70
2023/05/29 07:23:06;;;;;;;27.02;4.68;;;12.70;99.90;;;;;;5062891;28;20040;-70
2023/05/29 07:25:32;;;;;;;26.90;4.70;;;12.70;99.90;;;;;;5062656;28;20025;-69
2023/05/29 07:27:58;;;;;;;21.88;4.43;;;12.80;99.90;;;;;;5062975;28;20485;-68
2023/05/29 07:30:24;;;;;;;25.73;5.35;;;12.90;99.90;;;;;;5061656;28;20037;-68
2023/05/29 07:32:49;;;;;;;23.30;4.55;;;13.00;99.90;;;;;;5062702;28;20028;-67
2023/05/29 07:35:15;;;;;;;25.15;4.72;;;13.10;99.90;;;;;;5061470;28;20029;-68
2023/05/29 07:37:41;;;;;;;30.83;4.22;;;13.10;99.90;;;;;;5061536;28;20040;-70
2023/05/29 07:40:07;;;;;;;28.25;4.40;;;13.20;99.90;;;;;;5060489;28;20043;-68
2023/05/29 07:42:33;;;;;;;28.75;4.28;;;13.20;99.90;;;;;;5061549;28;20083;-69
2023/05/29 07:44:59;;;;;;;29.83;4.35;;;13.20;99.90;;;;;;5062010;28;20491;-68
2023/05/29 07:47:25;;;;;;;18.90;3.78;;;13.20;99.90;;;;;;5061616;28;20053;-67
2023/05/29 07:49:51;;;;;;;25.73;4.50;;;13.30;99.90;;;;;;5059776;28;20107;-67
2023/05/29 07:52:17;;;;;;;21.15;4.70;;;13.30;99.90;;;;;;5060615;28;20068;-68
2023/05/29 07:54:43;;;;;;;22.35;5.10;;;13.40;99.90;;;;;;5062483;28;20055;-68
2023/05/29 07:57:10;;;;;;;22.85;4.82;;;13.50;99.90;;;;;;5060035;28;20037;-68
2023/05/29 07:59:36;;;;;;;24.80;4.78;;;13.50;99.90;;;;;;5056490;28;20025;-67
2023/05/29 08:02:03;;;;;;;25.75;4.70;;;13.50;99.90;;;;;;5060122;28;20051;-68
2023/05/29 08:04:29;;;;;;;26.52;4.18;;;13.60;99.90;;;;;;5058861;28;20092;-68
2023/05/29 08:06:55;;;;;;;24.85;4.65;;;13.70;99.90;;;;;;5060159;28;20059;-67
2023/05/29 08:09:20;;;;;;;21.88;4.57;;;13.80;99.90;;;;;;5058094;28;20040;-68
2023/05/29 08:11:47;;;;;;;25.00;5.05;;;13.80;99.90;;;;;;5060014;28;20033;-67
2023/05/29 08:14:14;;;;;;;21.77;4.65;;;13.80;99.90;;;;;;5060448;28;20025;-69
2023/05/29 08:16:39;;;;;;;26.92;5.60;;;13.90;99.90;;;;;;5060591;28;20071;-69
2023/05/29 08:19:05;;;;;;;29.98;5.05;;;14.00;99.90;;;;;;5060666;28;20032;-69
2023/05/29 08:21:31;;;;;;;25.42;4.93;;;14.10;99.90;;;;;;5060918;28;20044;-70
2023/05/29 08:23:57;;;;;;;25.23;4.72;;;14.20;99.90;;;;;;5061674;28;20021;-69
2023/05/29 08:26:23;;;;;;;21.83;4.93;;;14.20;99.90;;;;;;5061355;28;20021;-69
2023/05/29 08:28:49;;;;;;;29.02;4.50;;;14.20;99.90;;;;;;5061094;28;20056;-70
2023/05/29 08:31:14;;;;;;;26.13;4.57;;;14.30;99.90;;;;;;5061237;28;20024;-69
2023/05/29 08:33:40;;;;;;;32.58;5.20;;;14.30;99.90;;;;;;5060029;28;20092;-69
2023/05/29 08:36:06;;;;;;;28.92;4.55;;;14.30;99.90;;;;;;5061386;28;20028;-68
2023/05/29 08:38:31;;;;;;;34.63;5.05;;;14.40;99.90;;;;;;5061566;28;20056;-70
2023/05/29 08:40:58;;;;;;;22.77;4.75;;;14.50;99.90;;;;;;5061015;28;20068;-69
2023/05/29 08:43:25;;;;;;;23.02;4.90;;;14.70;99.90;;;;;;5059822;28;20036;-68
2023/05/29 08:45:55;;;;;;;25.55;5.05;;;14.60;99.90;;;;;;5060823;28;20133;-69
2023/05/29 08:48:27;;;;;;;24.33;4.22;;;14.60;99.90;;;;;;5064641;28;20036;-69
2023/05/29 08:50:55;;;;;;;20.55;4.70;;;14.70;99.90;;;;;;5063969;28;20060;-69
2023/05/29 08:53:21;;;;;;;27.27;4.85;;;14.70;99.90;;;;;;5062345;28;20025;-67
2023/05/29 08:55:48;;;;;;;25.25;4.15;;;14.80;99.90;;;;;;5062346;28;20025;-69
2023/05/29 08:58:14;;;;;;;31.35;5.57;;;14.90;99.90;;;;;;5065173;28;20612;-69
2023/05/29 09:00:41;;;;;;;26.95;5.18;;;15.00;99.90;;;;;;5060156;28;20033;-70
2023/05/29 09:03:07;;;;;;;23.85;4.47;;;15.00;99.90;;;;;;5063850;28;20128;-67
2023/05/29 09:05:33;;;;;;;24.25;5.03;;;15.10;99.90;;;;;;5063765;28;20056;-69
2023/05/29 09:08:00;;;;;;;25.20;5.10;;;15.20;99.90;;;;;;5060906;28;20071;-69
2023/05/29 09:10:26;;;;;;;26.70;4.40;;;15.30;99.90;;;;;;5061015;28;20036;-68
2023/05/29 09:12:55;;;;;;;23.10;4.70;;;15.50;99.90;;;;;;5063329;28;20025;-69
2023/05/29 09:15:22;;;;;;;22.50;4.63;;;15.60;99.90;;;;;;5062245;28;20035;-68
2023/05/29 09:17:52;;;;;;;28.98;4.72;;;15.60;99.90;;;;;;5062312;28;20025;-70
2023/05/29 09:20:19;;;;;;;19.50;4.10;;;15.60;99.90;;;;;;5061481;28;20017;-71
2023/05/29 09:23:04;;;;;;;21.40;4.57;;;15.70;99.90;;;;;;5063579;28;20060;-68
2023/05/29 09:25:32;;;;;;;22.40;4.20;;;15.70;99.90;;;;;;5063061;28;20044;-67
2023/05/29 09:27:58;;;;;;;21.17;4.22;;;15.70;99.90;;;;;;5064076;28;20079;-68
2023/05/29 09:30:35;;;;;;;19.55;4.30;;;15.80;99.90;;;;;;5064531;28;20033;-68
2023/05/29 09:33:01;;;;;;;24.98;4.57;;;15.80;99.90;;;;;;5063185;28;20060;-68
2023/05/29 09:35:47;;;;;;;27.95;4.65;;;15.90;99.90;;;;;;5062668;28;20029;-69
2023/05/29 09:38:17;;;;;;;21.85;3.97;;;15.90;99.90;;;;;;5064858;28;20478;-68
2023/05/29 09:40:46;;;;;;;29.58;4.82;;;15.90;99.90;;;;;;5061549;28;20029;-68
2023/05/29 09:43:13;;;;;;;22.67;4.72;;;16.00;99.90;;;;;;5064312;28;20025;-68
2023/05/29 09:45:43;;;;;;;24.38;4.28;;;16.10;99.90;;;;;;5062115;28;20108;-68
2023/05/29 09:48:15;;;;;;;19.88;4.05;;;16.10;99.90;;;;;;5064306;28;20056;-70
2023/05/29 09:50:44;;;;;;;26.40;4.82;;;16.30;99.90;;;;;;5061113;28;20053;-69
2023/05/29 09:53:21;;;;;;;26.85;4.70;;;16.40;99.90;;;;;;5063034;28;20056;-71
2023/05/29 09:55:48;;;;;;;24.95;4.45;;;16.60;99.90;;;;;;5063871;28;20092;-67
2023/05/29 09:58:15;;;;;;;19.40;4.15;;;16.70;99.90;;;;;;5062398;28;20115;-68
2023/05/29 10:00:43;;;;;;;25.00;4.55;;;16.80;99.90;;;;;;5062708;28;20049;-69
2023/05/29 10:03:09;;;;;;;22.85;4.45;;;16.80;99.90;;;;;;5063550;28;20031;-67
2023/05/29 10:05:35;;;;;;;26.38;5.15;;;16.80;99.90;;;;;;5062876;28;20029;-68
2023/05/29 10:08:03;;;;;;;18.02;4.28;;;16.80;99.90;;;;;;5064500;28;20109;-68
2023/05/29 10:10:29;;;;;;;20.45;4.07;;;16.80;99.90;;;;;;5062007;28;20025;-68
2023/05/29 10:12:56;;;;;;;22.17;4.82;;;16.80;99.90;;;;;;5064025;28;20017;-70
2023/05/29 10:15:23;;;;;;;18.25;4.22;;;16.90;99.90;;;;;;5062822;28;20611;-69
2023/05/29 10:17:56;;;;;;;24.33;4.80;;;17.00;99.90;;;;;;5061522;28;20017;-68
2023/05/29 10:20:23;;;;;;;24.63;5.18;;;17.00;99.90;;;;;;5062500;28;20021;-67
2023/05/29 10:22:51;;;;;;;20.38;4.18;;;17.10;99.90;;;;;;5063441;28;20094;-68
2023/05/29 10:25:23;;;;;;;26.48;4.93;;;17.10;99.90;;;;;;5062151;28;20025;-67
2023/05/29 10:27:49;;;;;;;25.45;4.68;;;17.10;99.90;;;;;;5062983;28;20506;-68
2023/05/29 10:30:25;;;;;;;24.70;4.43;;;17.00;99.90;;;;;;5063590;28;20029;-68
2023/05/29 10:33:09;;;;;;;22.75;4.85;;;17.00;99.90;;;;;;5063244;28;20074;-67
2023/05/29 10:35:57;;;;;;;18.37;4.67;;;17.20;99.90;;;;;;5062606;28;20028;-69
2023/05/29 10:38:26;;;;;;;16.90;4.03;;;17.20;99.90;;;;;;5061214;28;20033;-70
2023/05/29 10:40:51;;;;;;;23.38;4.45;;;17.20;99.90;;;;;;5057658;28;21046;-68
2023/05/29 10:43:34;;;;;;;20.30;4.18;;;17.30;99.90;;;;;;5060726;28;20504;-70
2023/05/29 10:46:00;;;;;;;25.92;4.53;;;17.40;99.90;;;;;;5059692;28;20088;-69
2023/05/29 10:48:29;;;;;;;20.15;5.00;;;17.50;99.90;;;;;;5060337;28;20048;-68
2023/05/29 10:50:55;;;;;;;23.17;5.03;;;17.60;99.90;;;;;;5060318;28;20064;-69
2023/05/29 10:53:26;;;;;;;26.92;5.30;;;17.70;99.90;;;;;;5061753;28;20054;-68
2023/05/29 10:55:53;;;;;;;35.13;8.00;;;17.70;99.90;;;;;;5061382;28;20679;-69
2023/05/29 10:58:20;;;;;;;28.27;6.55;;;17.60;99.90;;;;;;5060989;28;20025;-69
2023/05/29 11:00:47;;;;;;;31.25;7.68;;;17.70;99.90;;;;;;5060918;28;20048;-69
2023/05/29 11:03:30;;;;;;;22.70;4.60;;;17.80;99.90;;;;;;5063482;28;20036;-70
2023/05/29 11:06:02;;;;;;;18.65;4.63;;;17.80;99.90;;;;;;5061739;28;20033;-68
2023/05/29 11:08:47;;;;;;;16.33;3.97;;;17.80;99.90;;;;;;5062062;28;20029;-68
2023/05/29 11:11:15;;;;;;;26.17;4.40;;;17.80;99.90;;;;;;5063119;28;20028;-70
2023/05/29 11:13:44;;;;;;;15.43;3.70;;;17.80;99.90;;;;;;5062566;28;20028;-72
2023/05/29 11:16:13;;;;;;;18.65;4.68;;;17.90;99.90;;;;;;5062182;28;20025;-70
2023/05/29 11:18:48;;;;;;;21.05;3.83;;;17.80;99.90;;;;;;5059944;28;20017;-71
2023/05/29 11:21:34;;;;;;;19.67;3.88;;;18.00;99.90;;;;;;5061691;28;20033;-69
2023/05/29 11:24:07;;;;;;;21.60;4.07;;;18.20;99.90;;;;;;5062345;28;20032;-70
2023/05/29 11:26:34;;;;;;;20.20;4.43;;;18.20;99.90;;;;;;5060418;28;20029;-69
2023/05/29 11:29:02;;;;;;;23.23;4.28;;;18.30;99.90;;;;;;5056879;28;20025;-69
2023/05/29 11:31:31;;;;;;;23.60;4.15;;;18.30;99.90;;;;;;5060474;28;20043;-68
2023/05/29 11:34:00;;;;;;;21.40;4.53;;;18.40;99.90;;;;;;5062061;28;20024;-69
2023/05/29 11:36:27;;;;;;;25.42;4.45;;;18.60;99.90;;;;;;5059896;28;20096;-68
2023/05/29 11:38:53;;;;;;;22.48;4.57;;;18.70;99.90;;;;;;5060472;28;20017;-69
2023/05/29 11:41:19;;;;;;;15.32;4.10;;;18.70;99.90;;;;;;5060659;28;20107;-68
2023/05/29 11:44:08;;;;;;;23.42;5.45;;;18.80;99.90;;;;;;5061542;28;20036;-68
2023/05/29 11:46:34;;;;;;;22.50;4.50;;;18.90;99.90;;;;;;5060266;28;20035;-68
2023/05/29 11:49:00;;;;;;;32.47;5.30;;;19.00;99.90;;;;;;5062202;28;20495;-69
2023/05/29 11:51:26;;;;;;;27.50;4.30;;;19.00;99.90;;;;;;5059161;28;20087;-67
2023/05/29 11:54:01;;;;;;;24.10;4.43;;;19.00;99.90;;;;;;5060378;28;20032;-67
2023/05/29 11:56:29;;;;;;;22.27;4.63;;;19.00;99.90;;;;;;5059288;28;20032;-67
2023/05/29 11:58:57;;;;;;;22.30;5.00;;;19.10;99.90;;;;;;5060960;28;20029;-68
2023/05/29 12:01:28;;;;;;;22.60;4.72;;;18.90;99.90;;;;;;5059641;28;20037;-69
2023/05/29 12:03:53;;;;;;;22.75;4.28;;;19.00;99.90;;;;;;5061541;28;20028;-67
2023/05/29 12:06:38;;;;;;;22.20;4.40;;;19.00;99.90;;;;;;5060898;28;20029;-70
2023/05/29 12:09:04;;;;;;;27.58;6.10;;;19.10;99.90;;;;;;5059312;28;20059;-69
2023/05/29 12:11:30;;;;;;;17.70;4.45;;;19.00;99.90;;;;;;5059362;28;20049;-69
2023/05/29 12:13:59;;;;;;;22.23;4.35;;;19.10;99.90;;;;;;5061312;28;20036;-68
2023/05/29 12:16:25;;;;;;;22.58;3.90;;;19.20;99.90;;;;;;5061691;28;20013;-69
2023/05/29 12:18:52;;;;;;;24.05;4.40;;;19.20;99.90;;;;;;5059977;28;20039;-70
2023/05/29 12:21:17;;;;;;;19.20;4.03;;;19.20;99.90;;;;;;5061623;28;20024;-70
2023/05/29 12:23:43;;;;;;;23.15;4.82;;;19.20;99.90;;;;;;5060643;28;20080;-69
2023/05/29 12:26:09;;;;;;;25.13;4.50;;;19.20;99.90;;;;;;5061436;28;20036;-69
2023/05/29 12:28:35;;;;;;;22.83;5.15;;;19.20;99.90;;;;;;5059802;28;20460;-69
2023/05/29 12:31:00;;;;;;;25.90;4.78;;;19.10;99.90;;;;;;5060002;28;20048;-69
2023/05/29 12:33:31;;;;;;;24.08;4.55;;;19.00;99.90;;;;;;5057365;28;20054;-68
2023/05/29 12:36:06;;;;;;;23.02;4.65;;;19.20;99.90;;;;;;5060975;28;20033;-69
2023/05/29 12:38:31;;;;;;;;;;;19.40;99.90;;;;;;5060927;28;20040;-68
2023/05/29 12:40:57;;;;;;;19.23;4.40;;;19.50;99.90;;;;;;5060802;28;19913;-69